OJAM/ADJ METAR and TAF weather

Enter ICAO airport designator
Station Type Date Time Source
OJAM METAR 2021/09/24 05:00 UTC NOAA

OJAM 240500Z 25008KT 9999 SCT020 SCT025 19/17 Q1012 NOSIG


Station Type Date Time Source
OJAM Decoded METAR 2021/09/24 05:00 UTC NOAA

Amman Airport, Jordan (OJAM) 31-59N 035-59E 768M
Sep 24, 2021 - 01:00 AM EDT / 2021.09.24 0500 UTC
Wind: from the WSW (250 degrees) at 9 MPH (8 KT):0
Visibility: greater than 7 mile(s):0
Sky conditions: partly cloudy
Temperature: 66 F (19 C)
Dew Point: 62 F (17 C)
Relative Humidity: 88%
Pressure (altimeter): 29.88 in. Hg (1012 hPa)
ob: OJAM 240500Z 25008KT 9999 SCT020 SCT025 19/17 Q1012 NOSIG
cycle: 5

Station Type Date Time Source
OJAM TAF 2021/09/24 06:15 UTC NOAA

TAF OJAM 240500Z 2406/2512 28012KT 5000 HZ SCT035 PROB40
TEMPO 2406/2410 27018KT 4000 -RA SCT020 SCT025

Example: see airport list